Time;durP1;ratioP1;P1;durP2;ratioP2;P2;SDS_P1;SDS_P2;PMS_P1;PMS_P2;Temp;Humidity;BMP_temperature;BMP_pressure;BME280_temperature;BME280_humidity;BME280_pressure;Samples;Min_cycle;Max_cycle;Signal;HPM_P1;HPM_P2
2022/11/04 00:02:06;;;;;;;6.57;2.13;;;20.10;96.60;;;;;;5011241;28;20449;-84
2022/11/04 00:04:33;;;;;;;9.27;2.17;;;20.00;95.90;;;;;;5011759;28;20859;-85
2022/11/04 00:07:00;;;;;;;8.02;2.20;;;19.80;96.60;;;;;;5010642;28;20498;-85
2022/11/04 00:09:29;;;;;;;8.38;2.30;;;19.80;96.80;;;;;;5002177;28;20482;-85
2022/11/04 00:14:42;;;;;;;5.00;2.00;;;19.80;96.80;;;;;;5009131;28;20952;-85
2022/11/04 00:17:18;;;;;;;6.40;2.35;;;19.80;96.50;;;;;;4994958;28;20419;-86
2022/11/04 00:33:24;;;;;;;8.18;2.20;;;20.20;96.20;;;;;;4998477;28;20423;-85
2022/11/04 00:33:48;;;;;;;9.13;2.15;;;20.20;95.90;;;;;;5001861;28;20373;-84
2022/11/04 00:36:16;;;;;;;16.08;2.67;;;20.30;95.80;;;;;;5007743;28;20379;-85
2022/11/04 00:38:43;;;;;;;8.57;2.30;;;20.20;95.80;;;;;;5011509;28;20402;-85
2022/11/04 00:41:43;;;;;;;6.15;1.80;;;20.30;96.60;;;;;;5011464;28;20398;-85
2022/11/04 00:44:04;;;;;;;7.88;2.00;;;20.40;95.60;;;;;;4999339;28;20389;-84
2022/11/04 00:46:33;;;;;;;9.40;2.20;;;20.40;95.00;;;;;;5017752;28;20386;-85
2022/11/04 00:49:01;;;;;;;9.57;2.20;;;20.40;95.00;;;;;;5020230;28;20382;-83
2022/11/04 00:51:28;;;;;;;8.70;2.20;;;20.20;94.80;;;;;;5030054;28;20379;-84
2022/11/04 00:53:57;;;;;;;10.52;2.33;;;20.20;95.40;;;;;;5022401;28;20400;-84
2022/11/04 00:56:24;;;;;;;8.80;2.10;;;20.00;95.50;;;;;;5017492;28;20482;-85
2022/11/04 00:58:51;;;;;;;7.55;2.13;;;19.90;97.60;;;;;;5027222;28;20370;-86
2022/11/04 01:01:19;;;;;;;7.43;1.80;;;19.70;98.10;;;;;;5027680;28;20379;-85
2022/11/04 01:03:48;;;;;;;6.80;2.00;;;19.50;98.60;;;;;;5027039;28;20456;-84
2022/11/04 01:06:15;;;;;;;8.70;2.30;;;19.30;99.20;;;;;;5017196;28;20372;-85
2022/11/04 01:08:42;;;;;;;9.52;2.20;;;19.10;99.60;;;;;;5003777;28;20422;-84
2022/11/04 01:11:10;;;;;;;6.40;1.88;;;19.00;99.90;;;;;;5014581;28;20386;-85
2022/11/04 01:13:38;;;;;;;6.93;1.83;;;18.90;99.90;;;;;;5014914;28;20763;-86
2022/11/04 01:16:08;;;;;;;8.90;2.13;;;18.90;99.90;;;;;;5014813;28;20387;-86
2022/11/04 01:18:35;;;;;;;8.20;1.70;;;18.80;99.90;;;;;;5014782;28;20789;-85
2022/11/04 01:21:04;;;;;;;6.85;1.90;;;18.80;99.90;;;;;;5000648;28;20932;-85
2022/11/04 01:23:31;;;;;;;6.67;2.10;;;18.70;99.90;;;;;;5014635;28;20521;-85
2022/11/04 01:25:58;;;;;;;6.28;1.73;;;18.60;99.90;;;;;;5014420;28;20378;-85
2022/11/04 01:28:25;;;;;;;8.13;2.00;;;18.60;99.90;;;;;;5014329;28;20470;-85
2022/11/04 01:30:52;;;;;;;8.07;1.93;;;18.60;99.90;;;;;;5012810;28;20882;-85
2022/11/04 01:33:19;;;;;;;7.97;1.80;;;18.50;99.90;;;;;;5014225;28;20878;-86
2022/11/04 01:35:46;;;;;;;6.75;1.83;;;18.40;99.90;;;;;;5013937;28;20921;-86
2022/11/04 01:38:13;;;;;;;7.45;1.80;;;18.30;99.90;;;;;;4998528;28;20413;-85
2022/11/04 01:40:40;;;;;;;6.68;1.90;;;18.30;99.90;;;;;;5014896;28;20383;-85
2022/11/04 01:43:48;;;;;;;7.68;1.88;;;18.30;99.90;;;;;;5015462;28;20403;-85
2022/11/04 01:46:43;;;;;;;7.07;1.95;;;18.30;99.90;;;;;;5017432;28;20486;-85
2022/11/04 01:49:32;;;;;;;7.67;1.80;;;18.20;99.90;;;;;;5013018;28;20402;-85
2022/11/04 01:52:10;;;;;;;6.32;2.00;;;18.20;99.90;;;;;;5015192;28;20383;-85
2022/11/04 01:54:38;;;;;;;6.82;2.10;;;18.10;99.90;;;;;;5014741;28;20368;-86
2022/11/04 01:57:11;;;;;;;6.87;1.67;;;18.10;99.90;;;;;;5014673;28;20390;-85
2022/11/04 01:59:40;;;;;;;6.18;1.80;;;18.10;99.90;;;;;;5013434;28;20933;-86
2022/11/04 02:02:07;;;;;;;6.45;1.70;;;18.10;99.90;;;;;;5014781;28;20399;-85
2022/11/04 02:04:35;;;;;;;6.88;1.80;;;18.20;99.90;;;;;;5015364;28;20475;-85
2022/11/04 02:07:06;;;;;;;6.85;1.67;;;18.20;99.90;;;;;;5002628;28;20456;-86
2022/11/04 02:09:35;;;;;;;10.48;2.05;;;18.20;99.90;;;;;;4988160;28;20379;-85
2022/11/04 02:14:49;;;;;;;7.35;1.80;;;18.50;99.90;;;;;;4992896;28;20373;-89
2022/11/04 02:17:19;;;;;;;13.25;2.03;;;18.60;99.90;;;;;;5016451;28;20494;-88
2022/11/04 02:20:17;;;;;;;32.97;3.95;;;18.70;99.90;;;;;;4989557;28;20859;-86
2022/11/04 02:23:24;;;;;;;9.13;1.90;;;18.90;99.90;;;;;;5012532;28;20414;-86
2022/11/04 02:26:17;;;;;;;5.75;1.70;;;19.10;99.90;;;;;;4998215;28;20872;-86
2022/11/04 02:29:05;;;;;;;5.90;1.70;;;19.30;99.90;;;;;;5027262;28;20391;-86
2022/11/04 02:32:17;;;;;;;7.70;1.90;;;19.50;99.90;;;;;;5013766;28;20387;-85
2022/11/04 02:35:05;;;;;;;9.20;2.03;;;19.70;99.90;;;;;;4968627;28;20400;-86
2022/11/04 02:37:35;;;;;;;4.37;1.50;;;19.90;99.90;;;;;;4960762;28;20446;-86
2022/11/04 02:40:13;;;;;;;3.78;1.20;;;20.20;99.90;;;;;;4960009;28;20390;-86
2022/11/04 02:42:59;;;;;;;5.00;1.50;;;20.60;98.60;;;;;;4967191;28;20427;-86
2022/11/04 02:45:43;;;;;;;4.85;1.50;;;20.80;97.40;;;;;;4960568;28;20401;-85
2022/11/04 02:48:19;;;;;;;4.80;1.30;;;21.00;96.20;;;;;;4972665;28;20391;-85
2022/11/04 02:51:27;;;;;;;4.00;1.43;;;21.00;95.90;;;;;;4972152;28;20389;-85
2022/11/04 02:54:11;;;;;;;3.95;1.40;;;21.10;95.50;;;;;;4913214;29;20397;-85
2022/11/04 02:56:48;;;;;;;6.88;1.50;;;21.20;95.70;;;;;;4908245;29;20399;-89
2022/11/04 02:59:41;;;;;;;5.07;1.52;;;21.60;95.10;;;;;;4918644;29;20403;-87
2022/11/04 03:02:13;;;;;;;4.47;1.40;;;22.10;92.80;;;;;;4916051;29;20451;-84
2022/11/04 03:04:46;;;;;;;164.50;18.40;;;22.50;91.80;;;;;;4915197;29;20502;-85
2022/11/04 03:07:17;;;;;;;10.23;2.77;;;22.80;92.10;;;;;;4911441;29;20450;-85
2022/11/04 03:09:50;;;;;;;6.22;1.55;;;23.00;91.50;;;;;;4913704;29;20439;-85
2022/11/04 03:12:22;;;;;;;14.85;3.70;;;23.60;89.50;;;;;;4955655;28;20394;-85
2022/11/04 03:14:55;;;;;;;5.97;2.00;;;24.30;85.40;;;;;;4960118;28;20399;-86
2022/11/04 03:17:46;;;;;;;6.32;1.80;;;24.50;81.00;;;;;;4972304;28;20442;-85
2022/11/04 03:20:20;;;;;;;5.43;1.58;;;24.20;80.60;;;;;;4971922;28;20930;-85
2022/11/04 03:22:47;;;;;;;4.30;1.50;;;24.10;80.60;;;;;;4971914;28;20439;-84
2022/11/04 03:25:15;;;;;;;4.88;1.58;;;23.80;81.00;;;;;;4959121;28;20392;-85
2022/11/04 03:28:10;;;;;;;5.47;1.77;;;23.80;80.90;;;;;;4984967;28;20405;-87
2022/11/04 03:30:45;;;;;;;144.00;16.00;;;23.50;77.90;;;;;;5017169;28;20383;-85
2022/11/04 03:33:28;;;;;;;38.67;7.20;;;23.00;82.00;;;;;;5015986;28;20391;-85
2022/11/04 03:35:55;;;;;;;63.00;7.90;;;23.30;80.90;;;;;;5014366;28;20894;-86
2022/11/04 03:38:22;;;;;;;8.32;1.90;;;23.20;82.10;;;;;;5004295;28;20418;-85
2022/11/04 03:40:50;;;;;;;5.33;1.50;;;23.40;80.20;;;;;;5014305;28;20375;-85
2022/11/04 03:43:24;;;;;;;8.85;1.70;;;23.00;80.10;;;;;;5014161;28;20407;-85
2022/11/04 03:45:53;;;;;;;4.65;1.42;;;22.60;83.60;;;;;;5013417;28;20474;-85
2022/11/04 03:48:20;;;;;;;11.57;1.77;;;22.50;82.40;;;;;;5013648;28;20379;-85
2022/11/04 03:50:48;;;;;;;16.80;2.22;;;22.50;83.90;;;;;;5006078;28;20414;-85
2022/11/04 03:53:23;;;;;;;5.07;1.70;;;22.50;82.20;;;;;;4992121;28;20761;-85
2022/11/04 03:56:26;;;;;;;5.78;1.50;;;22.30;81.10;;;;;;5001334;28;20861;-85
2022/11/04 03:59:05;;;;;;;5.25;1.70;;;21.90;83.80;;;;;;5007081;28;20379;-86
2022/11/04 04:01:35;;;;;;;8.83;2.80;;;21.80;85.70;;;;;;5003037;28;20466;-86
2022/11/04 04:04:22;;;;;;;6.25;1.90;;;21.60;85.30;;;;;;4999044;28;20805;-85
2022/11/04 04:06:53;;;;;;;6.75;1.80;;;21.80;87.50;;;;;;5000814;28;20368;-85
2022/11/04 04:09:30;;;;;;;7.53;1.70;;;22.10;89.50;;;;;;4997480;28;20414;-86
2022/11/04 04:12:07;;;;;;;6.00;1.63;;;22.50;87.70;;;;;;5001018;28;20384;-85
2022/11/04 04:14:40;;;;;;;7.18;1.77;;;22.50;88.00;;;;;;4993260;28;20384;-85
2022/11/04 04:17:31;;;;;;;6.88;1.70;;;22.40;88.20;;;;;;5020554;28;20391;-85
2022/11/04 04:20:18;;;;;;;7.25;1.60;;;22.50;87.80;;;;;;5004919;28;20391;-85
2022/11/04 04:27:29;;;;;;;5.78;1.40;;;22.50;87.90;;;;;;4995430;28;20427;-84
2022/11/04 04:28:37;;;;;;;4.13;1.65;;;22.40;87.10;;;;;;5001355;28;20488;-85
2022/11/04 04:31:06;;;;;;;9.07;2.00;;;22.40;88.20;;;;;;4989909;28;20390;-85
2022/11/04 04:33:33;;;;;;;4.90;1.60;;;22.50;87.50;;;;;;5012435;28;20380;-87
2022/11/04 04:36:00;;;;;;;6.72;1.67;;;22.50;87.80;;;;;;4994816;28;20901;-85
2022/11/04 04:47:02;;;;;;;5.93;1.60;;;22.30;87.10;;;;;;4985965;28;20985;-81
2022/11/04 04:49:33;;;;;;;7.85;1.70;;;22.50;87.40;;;;;;4992256;28;20396;-81
2022/11/04 04:52:07;;;;;;;6.13;2.20;;;22.60;86.10;;;;;;5004339;28;20411;-83
2022/11/04 04:54:34;;;;;;;6.32;2.08;;;22.30;87.90;;;;;;4983574;28;20472;-81
2022/11/04 04:57:01;;;;;;;5.95;1.90;;;22.10;88.60;;;;;;4992773;28;20381;-84
2022/11/04 04:59:27;;;;;;;6.88;1.95;;;21.90;88.70;;;;;;5006610;28;20401;-83
2022/11/04 05:01:54;;;;;;;5.65;1.65;;;21.80;89.60;;;;;;4998136;28;20879;-82
2022/11/04 05:04:21;;;;;;;7.03;2.00;;;21.80;90.20;;;;;;5000168;28;20882;-83
2022/11/04 05:06:48;;;;;;;7.47;2.00;;;21.80;89.30;;;;;;4987779;28;20415;-81
2022/11/04 05:09:15;;;;;;;6.30;1.85;;;21.80;88.60;;;;;;5002816;28;20475;-83
2022/11/04 05:11:42;;;;;;;7.22;1.80;;;21.70;89.50;;;;;;4992911;28;20389;-82
2022/11/04 05:14:09;;;;;;;7.15;2.30;;;21.50;87.60;;;;;;5007491;28;20423;-83
2022/11/04 05:16:36;;;;;;;6.60;2.20;;;21.30;88.60;;;;;;5012324;28;20387;-84
2022/11/04 05:19:03;;;;;;;5.45;1.73;;;21.20;88.90;;;;;;5007390;28;21033;-85
2022/11/04 05:21:30;;;;;;;16.13;3.00;;;21.10;88.20;;;;;;5005109;28;20886;-82
2022/11/04 05:23:57;;;;;;;6.43;1.60;;;21.00;89.30;;;;;;5003792;28;20418;-82
2022/11/04 05:26:24;;;;;;;6.45;1.80;;;21.10;88.90;;;;;;4994145;28;20391;-82
2022/11/04 05:28:51;;;;;;;6.07;2.00;;;21.20;89.30;;;;;;4994778;28;20455;-83
2022/11/04 05:31:18;;;;;;;7.30;3.00;;;21.30;89.30;;;;;;5006765;28;20859;-82
2022/11/04 05:33:45;;;;;;;5.72;2.33;;;21.40;87.50;;;;;;4998613;28;20399;-82
2022/11/04 05:36:15;;;;;;;6.57;1.90;;;21.40;87.50;;;;;;4996119;28;20401;-82
2022/11/04 05:38:42;;;;;;;5.03;1.80;;;21.50;87.50;;;;;;5000790;28;20415;-83
2022/11/04 05:41:24;;;;;;;5.22;2.00;;;21.60;86.80;;;;;;4998085;28;20500;-82
2022/11/04 05:43:59;;;;;;;5.05;2.10;;;21.50;85.60;;;;;;4999008;28;20467;-83
2022/11/04 05:46:27;;;;;;;6.43;1.93;;;21.10;88.40;;;;;;4990684;28;20381;-83
2022/11/04 05:48:54;;;;;;;5.90;1.67;;;21.10;88.20;;;;;;4991027;28;20392;-81
2022/11/04 05:51:25;;;;;;;5.72;1.52;;;21.40;87.40;;;;;;4993564;28;20389;-83
2022/11/04 05:53:52;;;;;;;6.40;2.28;;;21.70;87.30;;;;;;4994175;28;20874;-82
2022/11/04 05:56:19;;;;;;;5.05;2.00;;;21.90;86.20;;;;;;4997563;28;20405;-82
2022/11/04 05:58:46;;;;;;;5.17;1.80;;;22.20;85.50;;;;;;4995769;28;20398;-83
2022/11/04 06:01:45;;;;;;;5.13;1.60;;;22.20;83.50;;;;;;5007263;28;20466;-83
2022/11/04 06:04:17;;;;;;;5.18;1.40;;;22.00;85.40;;;;;;4998730;28;20444;-83
2022/11/04 06:06:45;;;;;;;4.10;1.52;;;21.90;84.50;;;;;;4993134;28;20420;-82
2022/11/04 06:09:12;;;;;;;5.88;1.55;;;22.00;84.70;;;;;;5008271;28;20402;-82
2022/11/04 06:11:39;;;;;;;4.15;1.45;;;22.00;83.80;;;;;;5001972;28;20470;-83
2022/11/04 06:14:06;;;;;;;4.22;1.30;;;21.90;83.80;;;;;;4996444;28;20416;-85
2022/11/04 06:16:33;;;;;;;5.97;1.60;;;21.80;83.20;;;;;;4998792;28;20383;-88
2022/11/04 06:19:00;;;;;;;6.25;1.60;;;21.60;83.40;;;;;;4992479;28;20420;-83
2022/11/04 06:21:29;;;;;;;5.23;1.90;;;21.30;84.90;;;;;;5006934;28;20765;-83
2022/11/04 06:23:58;;;;;;;5.85;1.85;;;21.20;86.10;;;;;;4994712;28;20413;-83
2022/11/04 06:26:30;;;;;;;5.47;1.90;;;21.00;86.90;;;;;;4993750;28;20412;-83
2022/11/04 06:28:57;;;;;;;4.63;1.90;;;20.90;88.10;;;;;;4993898;28;20381;-83
2022/11/04 06:31:24;;;;;;;5.38;2.00;;;20.80;89.00;;;;;;4992092;28;20471;-83
2022/11/04 06:33:51;;;;;;;9.18;2.20;;;20.60;90.40;;;;;;4993234;28;20397;-83
2022/11/04 06:36:18;;;;;;;9.43;2.45;;;20.40;91.00;;;;;;4993013;28;20990;-83
2022/11/04 06:38:45;;;;;;;6.13;1.95;;;20.30;91.70;;;;;;4992131;28;20808;-84
2022/11/04 06:41:15;;;;;;;7.85;2.03;;;20.10;92.40;;;;;;4996324;28;20478;-82
2022/11/04 06:43:42;;;;;;;8.55;3.05;;;19.90;92.90;;;;;;4994880;28;20511;-83
2022/11/04 06:46:42;;;;;;;8.80;3.30;;;19.90;93.40;;;;;;4995766;28;20904;-83
2022/11/04 06:49:13;;;;;;;8.85;2.50;;;19.80;93.80;;;;;;4975053;28;20403;-82
2022/11/04 06:51:40;;;;;;;7.53;2.80;;;19.70;94.30;;;;;;4980870;28;20434;-87
2022/11/04 06:54:08;;;;;;;20.15;10.38;;;19.60;94.70;;;;;;4977869;28;20467;-87
2022/11/04 06:56:35;;;;;;;20.95;15.07;;;19.60;94.80;;;;;;4977869;28;20924;-83
2022/11/04 06:59:02;;;;;;;34.75;22.42;;;19.50;95.10;;;;;;4984523;28;20414;-85
2022/11/04 07:01:33;;;;;;;17.05;9.52;;;19.50;95.50;;;;;;4971144;28;20497;-84
2022/11/04 07:04:00;;;;;;;28.67;18.70;;;19.50;95.40;;;;;;4971151;28;20510;-82
2022/11/04 07:06:29;;;;;;;8.07;3.50;;;19.50;95.50;;;;;;4981916;28;20539;-81
2022/11/04 07:08:59;;;;;;;8.63;2.40;;;19.50;95.90;;;;;;4980057;28;20886;-80
2022/11/04 07:11:28;;;;;;;6.10;2.00;;;19.40;96.00;;;;;;4985491;28;20403;-81
2022/11/04 07:13:55;;;;;;;7.50;2.10;;;19.40;95.80;;;;;;4977155;28;20802;-83
2022/11/04 07:16:22;;;;;;;7.18;1.83;;;19.40;95.60;;;;;;4973413;28;20407;-83
2022/11/04 07:18:50;;;;;;;7.13;2.10;;;19.40;95.60;;;;;;4970878;28;20386;-85
2022/11/04 07:21:17;;;;;;;9.63;2.20;;;19.30;95.80;;;;;;4988296;28;20385;-84
2022/11/04 07:23:44;;;;;;;6.90;1.90;;;19.30;96.10;;;;;;4973981;28;20924;-86
2022/11/04 07:26:12;;;;;;;7.20;1.90;;;19.20;96.50;;;;;;4993079;28;20408;-86
2022/11/04 07:28:39;;;;;;;6.05;1.90;;;19.10;96.80;;;;;;5002951;28;20386;-88
2022/11/04 07:31:10;;;;;;;9.38;2.00;;;19.10;97.20;;;;;;5008447;28;20413;-82
2022/11/04 07:33:37;;;;;;;7.22;2.00;;;18.90;97.50;;;;;;5002934;28;20403;-84
2022/11/04 07:36:12;;;;;;;6.28;1.88;;;18.90;98.10;;;;;;5012362;28;20394;-90
2022/11/04 07:38:39;;;;;;;7.25;1.90;;;18.80;98.40;;;;;;5000326;28;20442;-84
2022/11/04 07:41:07;;;;;;;10.75;2.22;;;18.70;98.70;;;;;;5007398;28;20458;-82
2022/11/04 07:43:34;;;;;;;5.80;2.03;;;18.60;99.20;;;;;;5002504;28;20481;-83
2022/11/04 07:46:06;;;;;;;8.48;2.78;;;18.50;99.80;;;;;;5005491;28;20406;-82
2022/11/04 07:48:34;;;;;;;7.53;2.33;;;18.50;99.90;;;;;;5013867;28;20410;-85
2022/11/04 07:51:02;;;;;;;6.78;2.55;;;18.50;99.90;;;;;;5008768;28;20389;-83
2022/11/04 07:53:32;;;;;;;6.72;2.58;;;18.60;99.90;;;;;;5006762;28;20971;-84
2022/11/04 07:56:02;;;;;;;7.07;2.10;;;18.60;99.90;;;;;;5000684;28;20391;-82
2022/11/04 07:58:29;;;;;;;7.32;2.30;;;18.60;99.90;;;;;;4998397;28;20776;-82
2022/11/04 08:01:00;;;;;;;10.35;3.40;;;18.50;99.90;;;;;;5012166;28;20518;-82
2022/11/04 08:03:35;;;;;;;7.65;2.80;;;18.60;99.90;;;;;;5002833;28;20412;-81
2022/11/04 08:06:04;;;;;;;8.77;3.40;;;18.60;99.90;;;;;;4993067;28;20377;-80
2022/11/04 08:08:32;;;;;;;7.18;2.28;;;18.60;99.90;;;;;;5002517;28;20393;-83
2022/11/04 08:11:10;;;;;;;6.97;2.55;;;18.60;99.90;;;;;;4997535;28;20736;-81
2022/11/04 08:13:37;;;;;;;14.23;4.53;;;18.60;99.90;;;;;;4991861;28;20393;-81
2022/11/04 08:16:08;;;;;;;7.47;3.00;;;18.60;99.90;;;;;;4995792;28;20381;-83
2022/11/04 08:18:35;;;;;;;7.63;2.40;;;18.50;99.90;;;;;;5004498;28;20394;-84
2022/11/04 08:21:03;;;;;;;8.88;2.50;;;18.50;99.90;;;;;;5011748;28;20375;-82
2022/11/04 08:23:31;;;;;;;7.72;2.45;;;18.50;99.90;;;;;;5010856;28;20415;-83
2022/11/04 08:25:58;;;;;;;8.82;2.35;;;18.40;99.90;;;;;;4998480;28;20439;-85
2022/11/04 08:28:26;;;;;;;7.50;2.10;;;18.40;99.90;;;;;;4999677;28;20387;-85
2022/11/04 08:30:57;;;;;;;7.03;2.00;;;18.30;99.90;;;;;;4998616;28;20896;-84
2022/11/04 08:33:26;;;;;;;6.63;2.22;;;18.30;99.90;;;;;;5002442;28;20395;-85
2022/11/04 08:35:55;;;;;;;10.48;2.83;;;18.20;99.90;;;;;;5008593;28;20410;-84
2022/11/04 08:38:22;;;;;;;7.47;2.33;;;18.10;99.90;;;;;;5002449;28;20471;-83
2022/11/04 08:40:49;;;;;;;7.90;2.38;;;18.00;99.90;;;;;;5003533;28;20478;-85
2022/11/04 08:43:16;;;;;;;8.65;3.40;;;17.90;99.90;;;;;;5006301;28;20500;-83
2022/11/04 08:45:45;;;;;;;9.43;2.80;;;17.80;99.90;;;;;;4997358;28;20381;-85
2022/11/04 08:48:15;;;;;;;8.38;2.85;;;17.80;99.90;;;;;;4989980;28;20483;-82
2022/11/04 08:50:43;;;;;;;8.73;2.87;;;17.70;99.90;;;;;;4989586;28;20443;-85
2022/11/04 08:53:10;;;;;;;8.77;2.60;;;17.60;99.90;;;;;;5004882;28;20392;-85
2022/11/04 08:55:37;;;;;;;8.05;2.90;;;17.50;99.90;;;;;;5008003;28;20371;-84
2022/11/04 08:58:04;;;;;;;7.13;2.55;;;17.40;99.90;;;;;;4998845;28;20388;-85
2022/11/04 09:00:31;;;;;;;10.48;2.55;;;17.30;99.90;;;;;;5003800;28;20391;-85
2022/11/04 09:02:59;;;;;;;7.78;2.45;;;17.20;99.90;;;;;;4999743;28;20408;-84
2022/11/04 09:05:26;;;;;;;7.10;2.43;;;17.10;99.90;;;;;;4987090;28;20438;-86
2022/11/04 09:07:54;;;;;;;8.57;2.42;;;17.10;99.90;;;;;;4985030;28;20451;-85
2022/11/04 09:10:21;;;;;;;8.80;2.80;;;17.00;99.90;;;;;;5003114;28;20425;-85
2022/11/04 09:12:48;;;;;;;8.68;2.90;;;16.90;99.90;;;;;;4991026;28;20453;-84
2022/11/04 09:15:15;;;;;;;7.97;2.38;;;16.90;99.90;;;;;;4990016;28;20393;-86
2022/11/04 09:17:43;;;;;;;8.27;2.55;;;16.90;99.90;;;;;;4998030;28;20404;-85
2022/11/04 09:20:11;;;;;;;9.77;2.30;;;16.80;99.90;;;;;;5005840;28;20945;-85
2022/11/04 09:22:38;;;;;;;6.97;2.25;;;16.80;99.90;;;;;;5006404;28;20413;-86
2022/11/04 09:25:05;;;;;;;9.65;2.30;;;16.70;99.90;;;;;;4990437;28;20438;-86
2022/11/04 09:27:32;;;;;;;5.72;2.20;;;16.70;99.90;;;;;;4998169;28;20391;-85
2022/11/04 09:29:59;;;;;;;9.27;2.38;;;16.60;99.90;;;;;;4995653;28;20400;-85
2022/11/04 09:32:26;;;;;;;7.85;2.30;;;16.50;99.90;;;;;;5002016;28;20425;-84
2022/11/04 09:34:53;;;;;;;7.57;2.40;;;16.40;99.90;;;;;;5000048;28;20436;-84
2022/11/04 09:37:20;;;;;;;10.32;2.70;;;16.40;99.90;;;;;;4992465;28;20427;-81
2022/11/04 09:39:47;;;;;;;6.78;2.25;;;16.30;99.90;;;;;;4998950;28;20955;-85
2022/11/04 09:42:52;;;;;;;8.68;2.20;;;16.30;99.90;;;;;;4997770;28;20477;-83
2022/11/04 09:45:24;;;;;;;7.82;2.40;;;16.20;99.90;;;;;;5003538;28;20388;-83
2022/11/04 09:47:57;;;;;;;8.57;2.63;;;16.10;99.90;;;;;;5011446;28;20383;-82
2022/11/04 09:50:37;;;;;;;7.85;2.42;;;16.10;99.90;;;;;;5002953;28;20399;-82
2022/11/04 09:53:13;;;;;;;9.52;2.70;;;16.00;99.90;;;;;;5010614;28;20403;-80
2022/11/04 09:55:47;;;;;;;8.45;2.40;;;16.00;99.90;;;;;;5016058;28;20483;-84
2022/11/04 09:58:14;;;;;;;11.07;2.47;;;15.90;99.90;;;;;;4993341;28;20401;-84
2022/11/04 10:00:47;;;;;;;8.88;2.50;;;15.90;99.90;;;;;;5006100;28;20402;-83
2022/11/04 10:03:20;;;;;;;8.90;2.30;;;15.80;99.90;;;;;;4999041;28;20408;-84
2022/11/04 10:06:15;;;;;;;10.10;2.55;;;15.80;99.90;;;;;;5000089;28;20383;-83
2022/11/04 10:09:08;;;;;;;8.48;2.20;;;15.70;99.90;;;;;;5010036;28;20889;-83
2022/11/04 10:12:25;;;;;;;9.02;2.30;;;15.70;99.90;;;;;;5003668;28;20386;-83
2022/11/04 10:15:13;;;;;;;6.47;2.08;;;15.70;99.90;;;;;;5027250;28;20461;-84
2022/11/04 10:18:02;;;;;;;6.20;2.10;;;15.60;99.90;;;;;;5024417;28;20564;-83
2022/11/04 10:20:37;;;;;;;7.63;2.20;;;15.60;99.90;;;;;;5030508;28;20403;-84
2022/11/04 10:23:33;;;;;;;7.63;2.30;;;15.60;99.90;;;;;;5030966;28;20406;-81
2022/11/04 10:26:09;;;;;;;8.23;2.20;;;15.60;99.90;;;;;;5026288;28;20923;-82
2022/11/04 10:28:49;;;;;;;8.85;2.20;;;15.50;99.90;;;;;;5030679;28;20460;-83
2022/11/04 10:31:18;;;;;;;8.15;2.40;;;15.50;99.90;;;;;;5030007;28;21054;-82
2022/11/04 10:34:37;;;;;;;7.55;2.30;;;15.40;99.90;;;;;;5024936;28;20923;-82
2022/11/04 10:37:08;;;;;;;7.82;2.13;;;15.40;99.90;;;;;;5006749;28;20386;-82
2022/11/04 10:39:41;;;;;;;7.10;2.20;;;15.40;99.90;;;;;;5028948;28;20888;-82
2022/11/04 10:42:15;;;;;;;9.80;2.53;;;15.40;99.90;;;;;;5009907;28;20811;-82
2022/11/04 10:44:42;;;;;;;8.80;2.30;;;15.50;99.90;;;;;;5023850;28;20465;-83
2022/11/04 10:47:43;;;;;;;9.07;2.30;;;15.50;99.90;;;;;;5013299;28;20429;-82
2022/11/04 10:50:13;;;;;;;9.53;2.50;;;15.60;99.90;;;;;;5012817;28;20367;-81
2022/11/04 10:52:41;;;;;;;6.65;2.08;;;15.70;99.90;;;;;;5001578;28;20403;-83
2022/11/04 10:55:33;;;;;;;8.35;2.45;;;15.70;99.90;;;;;;5008584;28;20384;-83
2022/11/04 10:58:00;;;;;;;6.80;2.13;;;15.70;99.90;;;;;;4990977;28;20418;-81
2022/11/04 11:00:38;;;;;;;7.78;2.13;;;15.80;99.90;;;;;;5012360;28;20383;-82
2022/11/04 11:03:29;;;;;;;6.03;2.20;;;15.80;99.90;;;;;;5012645;28;20917;-81
2022/11/04 11:06:13;;;;;;;8.15;2.40;;;15.80;99.90;;;;;;5007175;28;20826;-83
2022/11/04 11:08:42;;;;;;;8.32;2.40;;;15.90;99.90;;;;;;5003503;28;20848;-81
2022/11/04 11:11:11;;;;;;;7.47;2.43;;;15.90;99.90;;;;;;5000890;28;20406;-82
2022/11/04 11:13:43;;;;;;;8.00;2.50;;;15.90;99.90;;;;;;5001331;28;20385;-83
2022/11/04 11:16:30;;;;;;;7.25;2.53;;;15.90;99.90;;;;;;4998328;28;20742;-81
2022/11/04 11:19:17;;;;;;;7.90;2.50;;;15.90;99.90;;;;;;4981057;28;20380;-82
2022/11/04 11:21:48;;;;;;;8.18;2.25;;;15.90;99.90;;;;;;5003919;28;20389;-82
2022/11/04 11:24:20;;;;;;;9.38;2.58;;;16.00;99.90;;;;;;4992838;28;20401;-81
2022/11/04 11:26:53;;;;;;;8.85;2.50;;;16.00;99.90;;;;;;5005882;28;20400;-80
2022/11/04 11:29:22;;;;;;;9.43;2.38;;;16.00;99.90;;;;;;4991784;28;20757;-83
2022/11/04 11:31:51;;;;;;;7.65;2.22;;;16.10;99.90;;;;;;4997698;28;20417;-81
2022/11/04 11:34:36;;;;;;;6.28;2.10;;;16.10;99.90;;;;;;5009208;28;20477;-81
2022/11/04 11:37:04;;;;;;;7.25;2.28;;;16.10;99.90;;;;;;5011439;28;20383;-82
2022/11/04 11:39:35;;;;;;;8.80;2.40;;;16.10;99.90;;;;;;5011706;28;20391;-82
2022/11/04 11:42:17;;;;;;;6.95;2.40;;;16.10;99.90;;;;;;5011464;28;20383;-83
2022/11/04 11:44:58;;;;;;;8.90;2.40;;;16.20;99.90;;;;;;5007915;28;20449;-81
2022/11/04 11:47:28;;;;;;;6.45;2.25;;;16.20;99.90;;;;;;5011689;28;20465;-84
2022/11/04 11:50:23;;;;;;;7.57;2.50;;;16.20;99.90;;;;;;5012117;28;20962;-82
2022/11/04 11:52:54;;;;;;;8.02;2.58;;;16.20;99.90;;;;;;5010304;28;20375;-83
2022/11/04 11:55:36;;;;;;;7.72;2.60;;;16.20;99.90;;;;;;5001970;28;20935;-82
2022/11/04 11:58:22;;;;;;;9.13;2.90;;;16.20;99.90;;;;;;5010940;28;20387;-84
2022/11/04 12:01:03;;;;;;;7.25;2.50;;;16.20;99.90;;;;;;4994987;28;20800;-83
2022/11/04 12:03:42;;;;;;;9.30;3.20;;;16.20;99.90;;;;;;5006574;28;20433;-83
2022/11/04 12:06:24;;;;;;;9.70;3.40;;;16.10;99.90;;;;;;4996472;28;20379;-83
2022/11/04 12:09:15;;;;;;;10.13;3.30;;;16.10;99.90;;;;;;4991099;28;20420;-80
2022/11/04 12:12:07;;;;;;;7.10;2.95;;;16.10;99.90;;;;;;5001573;28;20375;-83
2022/11/04 12:14:54;;;;;;;6.90;2.80;;;16.10;99.90;;;;;;5005355;28;20394;-82
2022/11/04 12:17:41;;;;;;;8.98;2.95;;;16.20;99.90;;;;;;5002948;28;20949;-83
2022/11/04 12:20:46;;;;;;;10.25;2.75;;;16.30;99.90;;;;;;5012402;28;20379;-81
2022/11/04 12:23:30;;;;;;;8.95;2.70;;;16.20;99.90;;;;;;4971463;28;20469;-84
2022/11/04 12:26:23;;;;;;;10.23;2.60;;;16.30;99.90;;;;;;4971042;28;20382;-87
2022/11/04 12:28:59;;;;;;;13.13;2.70;;;16.30;99.90;;;;;;4960697;28;20432;-81
2022/11/04 12:31:39;;;;;;;8.40;2.63;;;16.30;99.90;;;;;;4955121;28;20874;-83
2022/11/04 12:34:32;;;;;;;8.60;2.78;;;16.30;99.90;;;;;;4961952;28;20930;-83
2022/11/04 12:37:40;;;;;;;8.93;2.30;;;16.30;99.90;;;;;;4957539;28;20880;-83
2022/11/04 12:40:30;;;;;;;9.45;2.22;;;16.30;99.90;;;;;;4961720;28;20433;-81
2022/11/04 12:43:14;;;;;;;10.07;2.50;;;16.30;99.90;;;;;;4984318;28;20480;-81
2022/11/04 12:46:00;;;;;;;8.88;2.45;;;16.30;99.90;;;;;;4959325;28;20425;-83
2022/11/04 12:49:00;;;;;;;9.55;2.50;;;16.30;99.90;;;;;;4951912;28;20424;-83
2022/11/04 12:51:50;;;;;;;8.20;2.25;;;16.20;99.90;;;;;;4964401;28;20387;-81
2022/11/04 12:54:35;;;;;;;7.82;2.30;;;16.20;99.90;;;;;;4951301;28;20449;-83
2022/11/04 12:57:35;;;;;;;8.13;2.10;;;16.20;99.90;;;;;;4964318;28;20379;-82
2022/11/04 13:00:08;;;;;;;9.57;2.33;;;16.20;99.90;;;;;;4990743;28;20393;-84
2022/11/04 13:03:00;;;;;;;6.50;2.20;;;16.10;99.90;;;;;;5009240;28;20402;-83
2022/11/04 13:05:43;;;;;;;10.30;2.50;;;16.20;99.90;;;;;;5001751;28;20397;-83
2022/11/04 13:08:40;;;;;;;8.43;2.30;;;16.20;99.90;;;;;;5017203;28;20383;-84
2022/11/04 13:11:21;;;;;;;8.25;2.20;;;16.20;99.90;;;;;;5019106;28;20858;-81
2022/11/04 13:14:15;;;;;;;7.55;2.15;;;16.20;99.90;;;;;;5018447;28;20383;-83
2022/11/04 13:16:45;;;;;;;8.52;2.30;;;16.20;99.90;;;;;;5017676;28;20441;-83
2022/11/04 13:19:30;;;;;;;8.45;2.17;;;16.20;99.90;;;;;;5005666;28;20407;-80
2022/11/04 13:22:09;;;;;;;8.43;2.17;;;16.20;99.90;;;;;;5005716;28;20729;-83
2022/11/04 13:24:46;;;;;;;8.57;2.35;;;16.20;99.90;;;;;;4995945;28;20390;-81
2022/11/04 13:27:27;;;;;;;7.18;2.08;;;16.20;99.90;;;;;;5002500;28;20403;-82
2022/11/04 13:30:13;;;;;;;7.55;2.10;;;16.20;99.90;;;;;;5009044;28;20380;-81
2022/11/04 13:33:04;;;;;;;8.27;2.15;;;16.20;99.90;;;;;;5008937;28;20367;-81
2022/11/04 13:35:57;;;;;;;7.97;2.38;;;16.20;99.90;;;;;;5014739;28;20441;-83
2022/11/04 13:39:05;;;;;;;8.50;2.40;;;16.20;99.90;;;;;;5006729;28;20400;-82
2022/11/04 13:41:32;;;;;;;9.68;2.58;;;16.10;99.90;;;;;;4990888;28;20813;-83
2022/11/04 13:44:03;;;;;;;8.63;2.60;;;16.10;99.90;;;;;;4969261;28;20417;-81
2022/11/04 13:46:33;;;;;;;9.07;2.63;;;16.10;99.90;;;;;;4991942;28;20385;-84
2022/11/04 13:49:14;;;;;;;10.68;2.70;;;16.10;99.90;;;;;;4992049;28;20481;-83
2022/11/04 13:51:47;;;;;;;6.82;2.65;;;16.10;99.90;;;;;;4987990;28;20421;-83
2022/11/04 13:54:42;;;;;;;9.90;2.90;;;16.10;99.90;;;;;;4981723;28;20403;-83